Hondarribia Gipuzkoa

latitud = 43° 21' 38''N | longitud = 001° 47' 14''W
4 metros sobre el nivel del mar | datos mensuales

Fecha, hora, temperatura, viento dirección y velocidad, humedad y presión.

  • 14-10-2018 19:00:00 | 15.00°C | Oeste |18.00 km/h | 87.00% | 1008.70 hPa
  • 14-10-2018 18:00:00 | 15.80°C | Sudoeste |21.00 km/h | 82.00% | 1008.10 hPa
  • 14-10-2018 17:00:00 | 15.90°C | Oeste |22.00 km/h | 81.00% | 1008.00 hPa
  • 14-10-2018 16:00:00 | 15.80°C | Oeste |15.00 km/h | 86.00% | 1007.80 hPa
  • 14-10-2018 15:00:00 | 15.20°C | Sudoeste |22.00 km/h | 93.00% | 1007.90 hPa
  • 14-10-2018 14:00:00 | 15.20°C | Sudoeste |21.00 km/h | 94.00% | 1007.30 hPa
  • 14-10-2018 13:00:00 | 15.80°C | Sudoeste |24.00 km/h | 88.00% | 1006.10 hPa
  • 14-10-2018 12:00:00 | 17.10°C | Oeste |31.00 km/h | 82.00% | 1005.10 hPa
  • 14-10-2018 11:00:00 | 18.80°C | Oeste |33.00 km/h | 85.00% | 1003.90 hPa
  • 14-10-2018 10:00:00 | 25.00°C | Sur |27.00 km/h | 52.00% | 1002.00 hPa
  • 14-10-2018 09:00:00 | 25.10°C | Sur |24.00 km/h | 52.00% | 1001.10 hPa
  • 14-10-2018 08:00:00 | 25.00°C | Sur |20.00 km/h | 53.00% | 1000.70 hPa
  • 14-10-2018 07:00:00 | 24.60°C | Sur |37.00 km/h | 54.00% | 1000.90 hPa
  • 14-10-2018 06:00:00 | 25.10°C | Sur |27.00 km/h | 52.00% | 1002.10 hPa
  • 14-10-2018 05:00:00 | 25.10°C | Sur |16.00 km/h | 53.00% | 1003.10 hPa
  • 14-10-2018 04:00:00 | 25.30°C | Sur |18.00 km/h | 51.00% | 1003.30 hPa
  • 14-10-2018 03:00:00 | 26.20°C | Sur |15.00 km/h | 47.00% | 1004.00 hPa
  • 14-10-2018 02:00:00 | 27.00°C | Sur |36.00 km/h | 44.00% | 1004.00 hPa
  • 14-10-2018 01:00:00 | 26.30°C | Sudeste |12.00 km/h | 49.00% | 1004.70 hPa
  • 14-10-2018 00:00:00 | 25.30°C | Norte |8.00 km/h | 54.00% | 1005.60 hPa
  • 13-10-2018 23:00:00 | 25.10°C | Nordeste |9.00 km/h | 54.00% | 1006.90 hPa
  • 13-10-2018 22:00:00 | 23.00°C | Sur |6.00 km/h | 66.00% | 1007.80 hPa
  • 13-10-2018 21:00:00 | 25.40°C | Sur |5.00 km/h | 57.00% | 1008.20 hPa
  • 13-10-2018 20:00:00 | 27.80°C | Nordeste |5.00 km/h | 45.00% | 1008.80 hPa